sensor_id;sensor_type;location;lat;lon;timestamp;P1;durP1;ratioP1;P2;durP2;ratioP2
14272;SDS011;7220;49.450;11.052;2023-04-15T00:03:01;8.43;;;7.13;;
14272;SDS011;7220;49.450;11.052;2023-04-15T00:07:01;7.03;;;6.40;;
14272;SDS011;7220;49.450;11.052;2023-04-15T00:11:02;7.25;;;6.55;;
14272;SDS011;7220;49.450;11.052;2023-04-15T00:15:04;7.18;;;6.47;;
14272;SDS011;7220;49.450;11.052;2023-04-15T00:19:07;7.53;;;6.78;;
14272;SDS011;7220;49.450;11.052;2023-04-15T00:23:07;6.95;;;6.32;;
14272;SDS011;7220;49.450;11.052;2023-04-15T00:27:07;6.45;;;5.82;;
14272;SDS011;7220;49.450;11.052;2023-04-15T00:31:08;6.45;;;5.82;;
14272;SDS011;7220;49.450;11.052;2023-04-15T00:35:08;5.82;;;5.32;;
14272;SDS011;7220;49.450;11.052;2023-04-15T00:39:09;6.70;;;5.68;;
14272;SDS011;7220;49.450;11.052;2023-04-15T00:43:09;5.80;;;5.30;;
14272;SDS011;7220;49.450;11.052;2023-04-15T00:47:09;5.47;;;4.97;;
14272;SDS011;7220;49.450;11.052;2023-04-15T00:51:10;5.70;;;5.07;;
14272;SDS011;7220;49.450;11.052;2023-04-15T00:55:11;7.00;;;5.18;;
14272;SDS011;7220;49.450;11.052;2023-04-15T00:59:12;5.47;;;4.97;;
14272;SDS011;7220;49.450;11.052;2023-04-15T01:03:13;5.93;;;5.30;;
14272;SDS011;7220;49.450;11.052;2023-04-15T01:07:14;5.57;;;4.65;;
14272;SDS011;7220;49.450;11.052;2023-04-15T01:11:15;6.38;;;5.25;;
14272;SDS011;7220;49.450;11.052;2023-04-15T01:15:16;5.32;;;4.82;;
14272;SDS011;7220;49.450;11.052;2023-04-15T01:19:16;5.47;;;4.97;;
14272;SDS011;7220;49.450;11.052;2023-04-15T01:23:17;6.03;;;5.43;;
14272;SDS011;7220;49.450;11.052;2023-04-15T01:27:17;6.32;;;5.28;;
14272;SDS011;7220;49.450;11.052;2023-04-15T01:31:19;6.50;;;5.90;;
14272;SDS011;7220;49.450;11.052;2023-04-15T01:35:20;5.35;;;4.93;;
14272;SDS011;7220;49.450;11.052;2023-04-15T01:39:20;6.03;;;5.15;;
14272;SDS011;7220;49.450;11.052;2023-04-15T01:43:20;6.22;;;5.63;;
14272;SDS011;7220;49.450;11.052;2023-04-15T01:47:21;5.35;;;4.75;;
14272;SDS011;7220;49.450;11.052;2023-04-15T01:51:21;5.43;;;4.93;;
14272;SDS011;7220;49.450;11.052;2023-04-15T01:55:22;6.00;;;5.40;;
14272;SDS011;7220;49.450;11.052;2023-04-15T01:59:22;5.72;;;4.95;;
14272;SDS011;7220;49.450;11.052;2023-04-15T02:03:23;6.32;;;5.30;;
14272;SDS011;7220;49.450;11.052;2023-04-15T02:07:24;5.25;;;4.75;;
14272;SDS011;7220;49.450;11.052;2023-04-15T02:11:25;6.10;;;5.60;;
14272;SDS011;7220;49.450;11.052;2023-04-15T02:15:26;5.78;;;5.22;;
14272;SDS011;7220;49.450;11.052;2023-04-15T02:19:26;5.57;;;5.13;;
14272;SDS011;7220;49.450;11.052;2023-04-15T02:23:26;5.85;;;5.30;;
14272;SDS011;7220;49.450;11.052;2023-04-15T02:27:27;6.03;;;5.53;;
14272;SDS011;7220;49.450;11.052;2023-04-15T02:31:27;5.80;;;5.22;;
14272;SDS011;7220;49.450;11.052;2023-04-15T02:35:28;5.80;;;5.22;;
14272;SDS011;7220;49.450;11.052;2023-04-15T02:39:28;5.38;;;4.88;;
14272;SDS011;7220;49.450;11.052;2023-04-15T02:43:28;6.70;;;5.60;;
14272;SDS011;7220;49.450;11.052;2023-04-15T02:47:29;5.82;;;5.22;;
14272;SDS011;7220;49.450;11.052;2023-04-15T02:51:29;5.88;;;4.97;;
14272;SDS011;7220;49.450;11.052;2023-04-15T02:55:32;5.63;;;5.03;;
14272;SDS011;7220;49.450;11.052;2023-04-15T02:59:33;7.38;;;5.20;;
14272;SDS011;7220;49.450;11.052;2023-04-15T03:03:33;5.47;;;4.97;;
14272;SDS011;7220;49.450;11.052;2023-04-15T03:07:34;5.93;;;5.00;;
14272;SDS011;7220;49.450;11.052;2023-04-15T03:11:34;6.40;;;5.72;;
14272;SDS011;7220;49.450;11.052;2023-04-15T03:15:39;8.00;;;5.53;;
14272;SDS011;7220;49.450;11.052;2023-04-15T03:19:39;7.03;;;5.40;;
14272;SDS011;7220;49.450;11.052;2023-04-15T03:23:40;7.10;;;5.70;;
14272;SDS011;7220;49.450;11.052;2023-04-15T03:27:40;6.22;;;5.25;;
14272;SDS011;7220;49.450;11.052;2023-04-15T03:31:40;5.75;;;5.05;;
14272;SDS011;7220;49.450;11.052;2023-04-15T03:35:41;5.88;;;5.13;;
14272;SDS011;7220;49.450;11.052;2023-04-15T03:39:41;5.63;;;5.13;;
14272;SDS011;7220;49.450;11.052;2023-04-15T03:43:41;6.95;;;5.45;;
14272;SDS011;7220;49.450;11.052;2023-04-15T03:47:42;6.20;;;5.57;;
14272;SDS011;7220;49.450;11.052;2023-04-15T03:51:42;6.93;;;5.57;;
14272;SDS011;7220;49.450;11.052;2023-04-15T03:55:43;7.32;;;5.32;;
14272;SDS011;7220;49.450;11.052;2023-04-15T03:59:43;6.72;;;5.70;;
14272;SDS011;7220;49.450;11.052;2023-04-15T04:03:43;7.03;;;5.78;;
14272;SDS011;7220;49.450;11.052;2023-04-15T04:07:44;6.80;;;5.93;;
14272;SDS011;7220;49.450;11.052;2023-04-15T04:11:44;7.03;;;6.07;;
14272;SDS011;7220;49.450;11.052;2023-04-15T04:15:45;7.28;;;6.55;;
14272;SDS011;7220;49.450;11.052;2023-04-15T04:19:45;10.02;;;6.20;;
14272;SDS011;7220;49.450;11.052;2023-04-15T04:23:45;7.85;;;6.10;;
14272;SDS011;7220;49.450;11.052;2023-04-15T04:27:46;6.65;;;5.70;;
14272;SDS011;7220;49.450;11.052;2023-04-15T04:31:46;6.75;;;5.93;;
14272;SDS011;7220;49.450;11.052;2023-04-15T04:35:47;8.93;;;6.72;;
14272;SDS011;7220;49.450;11.052;2023-04-15T04:39:47;6.60;;;6.00;;
14272;SDS011;7220;49.450;11.052;2023-04-15T04:43:48;7.33;;;6.27;;
14272;SDS011;7220;49.450;11.052;2023-04-15T04:47:48;6.93;;;6.22;;
14272;SDS011;7220;49.450;11.052;2023-04-15T04:51:48;8.32;;;6.13;;
14272;SDS011;7220;49.450;11.052;2023-04-15T04:55:49;7.65;;;6.55;;
14272;SDS011;7220;49.450;11.052;2023-04-15T04:59:50;8.07;;;6.68;;
14272;SDS011;7220;49.450;11.052;2023-04-15T05:03:50;6.78;;;6.10;;
14272;SDS011;7220;49.450;11.052;2023-04-15T05:07:50;8.07;;;6.25;;
14272;SDS011;7220;49.450;11.052;2023-04-15T05:11:51;6.35;;;5.75;;
14272;SDS011;7220;49.450;11.052;2023-04-15T05:15:51;7.07;;;6.00;;
14272;SDS011;7220;49.450;11.052;2023-04-15T05:19:52;7.18;;;6.47;;
14272;SDS011;7220;49.450;11.052;2023-04-15T05:23:52;7.53;;;6.13;;
14272;SDS011;7220;49.450;11.052;2023-04-15T05:27:53;7.03;;;5.97;;
14272;SDS011;7220;49.450;11.052;2023-04-15T05:31:53;8.05;;;6.45;;
14272;SDS011;7220;49.450;11.052;2023-04-15T05:35:53;7.03;;;6.25;;
14272;SDS011;7220;49.450;11.052;2023-04-15T05:39:53;7.20;;;6.25;;
14272;SDS011;7220;49.450;11.052;2023-04-15T05:43:54;8.75;;;6.20;;
14272;SDS011;7220;49.450;11.052;2023-04-15T05:47:54;7.03;;;6.22;;
14272;SDS011;7220;49.450;11.052;2023-04-15T05:51:55;6.60;;;6.00;;
14272;SDS011;7220;49.450;11.052;2023-04-15T05:55:55;8.95;;;6.90;;
14272;SDS011;7220;49.450;11.052;2023-04-15T05:59:56;6.78;;;6.07;;
14272;SDS011;7220;49.450;11.052;2023-04-15T06:03:56;8.68;;;6.80;;
14272;SDS011;7220;49.450;11.052;2023-04-15T06:07:57;8.27;;;6.30;;
14272;SDS011;7220;49.450;11.052;2023-04-15T06:11:57;7.25;;;6.55;;
14272;SDS011;7220;49.450;11.052;2023-04-15T06:15:57;6.93;;;6.25;;
14272;SDS011;7220;49.450;11.052;2023-04-15T06:19:58;6.70;;;6.10;;
14272;SDS011;7220;49.450;11.052;2023-04-15T06:23:59;6.85;;;6.15;;
14272;SDS011;7220;49.450;11.052;2023-04-15T06:28:02;7.45;;;6.47;;
14272;SDS011;7220;49.450;11.052;2023-04-15T06:32:03;7.15;;;6.30;;
14272;SDS011;7220;49.450;11.052;2023-04-15T06:36:03;8.07;;;6.70;;
14272;SDS011;7220;49.450;11.052;2023-04-15T06:40:04;6.47;;;5.88;;
14272;SDS011;7220;49.450;11.052;2023-04-15T06:44:05;7.00;;;6.25;;
14272;SDS011;7220;49.450;11.052;2023-04-15T06:48:06;8.43;;;6.35;;
14272;SDS011;7220;49.450;11.052;2023-04-15T06:52:06;7.13;;;6.00;;
14272;SDS011;7220;49.450;11.052;2023-04-15T06:56:07;9.00;;;6.70;;
14272;SDS011;7220;49.450;11.052;2023-04-15T07:00:08;7.40;;;6.32;;
14272;SDS011;7220;49.450;11.052;2023-04-15T07:04:11;7.07;;;6.38;;
14272;SDS011;7220;49.450;11.052;2023-04-15T07:08:11;7.43;;;6.72;;
14272;SDS011;7220;49.450;11.052;2023-04-15T07:12:12;7.53;;;6.70;;
14272;SDS011;7220;49.450;11.052;2023-04-15T07:16:12;7.53;;;6.65;;
14272;SDS011;7220;49.450;11.052;2023-04-15T07:20:13;8.40;;;7.50;;
14272;SDS011;7220;49.450;11.052;2023-04-15T07:24:13;8.80;;;7.93;;
14272;SDS011;7220;49.450;11.052;2023-04-15T07:28:17;7.07;;;6.38;;
14272;SDS011;7220;49.450;11.052;2023-04-15T07:32:17;8.50;;;7.65;;
14272;SDS011;7220;49.450;11.052;2023-04-15T07:36:18;7.68;;;6.65;;
14272;SDS011;7220;49.450;11.052;2023-04-15T07:40:18;8.70;;;6.05;;
14272;SDS011;7220;49.450;11.052;2023-04-15T07:44:18;5.95;;;5.45;;
14272;SDS011;7220;49.450;11.052;2023-04-15T07:48:19;6.03;;;5.22;;
14272;SDS011;7220;49.450;11.052;2023-04-15T07:52:20;6.03;;;5.43;;
14272;SDS011;7220;49.450;11.052;2023-04-15T07:56:20;5.32;;;4.80;;
14272;SDS011;7220;49.450;11.052;2023-04-15T08:00:21;5.72;;;4.95;;
14272;SDS011;7220;49.450;11.052;2023-04-15T08:04:21;5.17;;;4.67;;
14272;SDS011;7220;49.450;11.052;2023-04-15T08:08:21;6.88;;;5.45;;
14272;SDS011;7220;49.450;11.052;2023-04-15T08:12:22;5.20;;;4.70;;
14272;SDS011;7220;49.450;11.052;2023-04-15T08:16:23;5.43;;;4.93;;
14272;SDS011;7220;49.450;11.052;2023-04-15T08:20:26;5.10;;;4.35;;
14272;SDS011;7220;49.450;11.052;2023-04-15T08:24:27;4.63;;;4.22;;
14272;SDS011;7220;49.450;11.052;2023-04-15T08:28:27;4.43;;;4.03;;
14272;SDS011;7220;49.450;11.052;2023-04-15T08:32:28;3.92;;;3.63;;
14272;SDS011;7220;49.450;11.052;2023-04-15T08:36:28;3.55;;;3.03;;
14272;SDS011;7220;49.450;11.052;2023-04-15T08:40:30;3.22;;;2.90;;
14272;SDS011;7220;49.450;11.052;2023-04-15T08:44:43;2.55;;;2.35;;
14272;SDS011;7220;49.450;11.052;2023-04-15T08:48:46;3.08;;;2.13;;
14272;SDS011;7220;49.450;11.052;2023-04-15T08:52:48;2.78;;;1.70;;
14272;SDS011;7220;49.450;11.052;2023-04-15T08:56:48;2.17;;;1.75;;
14272;SDS011;7220;49.450;11.052;2023-04-15T09:00:49;1.60;;;1.50;;
14272;SDS011;7220;49.450;11.052;2023-04-15T09:04:49;1.63;;;1.50;;
14272;SDS011;7220;49.450;11.052;2023-04-15T09:08:50;1.70;;;1.60;;
14272;SDS011;7220;49.450;11.052;2023-04-15T09:12:50;2.75;;;1.70;;
14272;SDS011;7220;49.450;11.052;2023-04-15T09:16:55;2.22;;;2.03;;
14272;SDS011;7220;49.450;11.052;2023-04-15T09:21:08;1.70;;;1.60;;
14272;SDS011;7220;49.450;11.052;2023-04-15T09:29:26;1.95;;;1.85;;
14272;SDS011;7220;49.450;11.052;2023-04-15T09:33:27;2.40;;;2.20;;
14272;SDS011;7220;49.450;11.052;2023-04-15T09:37:35;2.22;;;1.85;;
14272;SDS011;7220;49.450;11.052;2023-04-15T09:41:35;3.00;;;2.30;;
14272;SDS011;7220;49.450;11.052;2023-04-15T09:45:36;2.55;;;2.35;;
14272;SDS011;7220;49.450;11.052;2023-04-15T09:49:36;2.80;;;2.60;;
14272;SDS011;7220;49.450;11.052;2023-04-15T09:53:37;2.90;;;2.60;;
14272;SDS011;7220;49.450;11.052;2023-04-15T09:57:37;2.95;;;2.55;;
14272;SDS011;7220;49.450;11.052;2023-04-15T10:05:58;2.70;;;2.50;;
14272;SDS011;7220;49.450;11.052;2023-04-15T10:10:00;4.20;;;2.53;;
14272;SDS011;7220;49.450;11.052;2023-04-15T10:14:03;2.60;;;2.40;;
14272;SDS011;7220;49.450;11.052;2023-04-15T10:18:06;2.95;;;2.45;;
14272;SDS011;7220;49.450;11.052;2023-04-15T10:22:08;3.70;;;2.40;;
14272;SDS011;7220;49.450;11.052;2023-04-15T10:26:09;4.60;;;2.58;;
14272;SDS011;7220;49.450;11.052;2023-04-15T10:30:11;2.33;;;2.13;;
14272;SDS011;7220;49.450;11.052;2023-04-15T10:34:12;2.50;;;2.30;;
14272;SDS011;7220;49.450;11.052;2023-04-15T10:38:32;3.45;;;2.50;;
14272;SDS011;7220;49.450;11.052;2023-04-15T10:42:37;2.67;;;2.47;;
14272;SDS011;7220;49.450;11.052;2023-04-15T10:46:44;2.85;;;2.55;;
14272;SDS011;7220;49.450;11.052;2023-04-15T10:50:54;3.22;;;2.85;;
14272;SDS011;7220;49.450;11.052;2023-04-15T10:59:17;3.60;;;3.00;;
14272;SDS011;7220;49.450;11.052;2023-04-15T11:03:33;3.25;;;2.95;;
14272;SDS011;7220;49.450;11.052;2023-04-15T11:16:10;3.47;;;2.53;;
14272;SDS011;7220;49.450;11.052;2023-04-15T11:20:13;2.70;;;2.50;;
14272;SDS011;7220;49.450;11.052;2023-04-15T11:24:22;3.15;;;2.60;;
14272;SDS011;7220;49.450;11.052;2023-04-15T11:28:26;3.08;;;2.88;;
14272;SDS011;7220;49.450;11.052;2023-04-15T11:32:27;2.92;;;2.65;;
14272;SDS011;7220;49.450;11.052;2023-04-15T11:36:28;2.47;;;2.27;;
14272;SDS011;7220;49.450;11.052;2023-04-15T11:40:31;2.50;;;2.28;;
14272;SDS011;7220;49.450;11.052;2023-04-15T11:44:34;3.13;;;2.83;;
14272;SDS011;7220;49.450;11.052;2023-04-15T11:48:34;3.95;;;2.63;;
14272;SDS011;7220;49.450;11.052;2023-04-15T11:52:37;2.58;;;2.33;;
14272;SDS011;7220;49.450;11.052;2023-04-15T11:56:37;2.40;;;2.20;;
14272;SDS011;7220;49.450;11.052;2023-04-15T12:00:38;2.70;;;2.50;;
14272;SDS011;7220;49.450;11.052;2023-04-15T12:04:39;2.88;;;2.67;;
14272;SDS011;7220;49.450;11.052;2023-04-15T12:08:50;2.83;;;2.63;;
14272;SDS011;7220;49.450;11.052;2023-04-15T12:13:05;4.10;;;3.30;;
14272;SDS011;7220;49.450;11.052;2023-04-15T12:17:06;2.40;;;2.20;;
14272;SDS011;7220;49.450;11.052;2023-04-15T12:21:09;2.85;;;2.60;;
14272;SDS011;7220;49.450;11.052;2023-04-15T12:25:10;2.40;;;2.20;;
14272;SDS011;7220;49.450;11.052;2023-04-15T12:29:11;2.25;;;2.03;;
14272;SDS011;7220;49.450;11.052;2023-04-15T12:33:13;2.53;;;2.33;;
14272;SDS011;7220;49.450;11.052;2023-04-15T12:37:13;2.70;;;2.50;;
14272;SDS011;7220;49.450;11.052;2023-04-15T12:41:14;3.55;;;2.30;;
14272;SDS011;7220;49.450;11.052;2023-04-15T12:45:15;3.97;;;3.58;;
14272;SDS011;7220;49.450;11.052;2023-04-15T12:49:15;2.73;;;2.53;;
14272;SDS011;7220;49.450;11.052;2023-04-15T12:53:19;3.10;;;2.70;;
14272;SDS011;7220;49.450;11.052;2023-04-15T12:57:19;3.17;;;2.30;;
14272;SDS011;7220;49.450;11.052;2023-04-15T13:01:27;2.60;;;2.40;;
14272;SDS011;7220;49.450;11.052;2023-04-15T13:05:28;2.72;;;2.53;;
14272;SDS011;7220;49.450;11.052;2023-04-15T13:09:28;2.40;;;2.20;;
14272;SDS011;7220;49.450;11.052;2023-04-15T13:13:28;2.83;;;2.63;;
14272;SDS011;7220;49.450;11.052;2023-04-15T13:17:30;2.78;;;2.58;;
14272;SDS011;7220;49.450;11.052;2023-04-15T13:21:31;10.70;;;2.72;;
14272;SDS011;7220;49.450;11.052;2023-04-15T13:25:34;2.97;;;2.60;;
14272;SDS011;7220;49.450;11.052;2023-04-15T13:29:34;4.03;;;2.97;;
14272;SDS011;7220;49.450;11.052;2023-04-15T13:33:34;3.10;;;2.28;;
14272;SDS011;7220;49.450;11.052;2023-04-15T13:37:35;3.67;;;2.35;;
14272;SDS011;7220;49.450;11.052;2023-04-15T13:41:35;2.88;;;2.67;;
14272;SDS011;7220;49.450;11.052;2023-04-15T13:45:36;2.30;;;2.10;;
14272;SDS011;7220;49.450;11.052;2023-04-15T13:49:37;3.13;;;2.28;;
14272;SDS011;7220;49.450;11.052;2023-04-15T13:53:37;4.28;;;2.63;;
14272;SDS011;7220;49.450;11.052;2023-04-15T13:57:38;3.20;;;2.47;;
14272;SDS011;7220;49.450;11.052;2023-04-15T14:01:38;2.97;;;2.55;;
14272;SDS011;7220;49.450;11.052;2023-04-15T14:05:40;3.20;;;2.50;;
14272;SDS011;7220;49.450;11.052;2023-04-15T14:09:40;2.70;;;2.50;;
14272;SDS011;7220;49.450;11.052;2023-04-15T14:13:42;2.58;;;2.38;;
14272;SDS011;7220;49.450;11.052;2023-04-15T14:17:42;3.08;;;2.80;;
14272;SDS011;7220;49.450;11.052;2023-04-15T14:21:42;2.97;;;2.53;;
14272;SDS011;7220;49.450;11.052;2023-04-15T14:25:43;2.60;;;2.40;;
14272;SDS011;7220;49.450;11.052;2023-04-15T14:29:43;3.10;;;2.80;;
14272;SDS011;7220;49.450;11.052;2023-04-15T14:33:43;2.40;;;2.20;;
14272;SDS011;7220;49.450;11.052;2023-04-15T14:37:44;2.63;;;2.42;;
14272;SDS011;7220;49.450;11.052;2023-04-15T14:41:44;2.78;;;2.50;;
14272;SDS011;7220;49.450;11.052;2023-04-15T14:45:45;3.35;;;3.00;;
14272;SDS011;7220;49.450;11.052;2023-04-15T14:49:45;2.67;;;2.45;;
14272;SDS011;7220;49.450;11.052;2023-04-15T14:53:46;2.65;;;2.45;;
14272;SDS011;7220;49.450;11.052;2023-04-15T14:57:46;2.22;;;2.03;;
14272;SDS011;7220;49.450;11.052;2023-04-15T15:01:47;2.05;;;1.92;;
14272;SDS011;7220;49.450;11.052;2023-04-15T15:05:47;2.60;;;2.40;;
14272;SDS011;7220;49.450;11.052;2023-04-15T15:09:47;2.70;;;2.50;;
14272;SDS011;7220;49.450;11.052;2023-04-15T15:13:48;2.70;;;2.50;;
14272;SDS011;7220;49.450;11.052;2023-04-15T15:17:48;7.40;;;3.73;;
14272;SDS011;7220;49.450;11.052;2023-04-15T15:21:49;3.22;;;2.92;;
14272;SDS011;7220;49.450;11.052;2023-04-15T15:25:49;5.20;;;3.92;;
14272;SDS011;7220;49.450;11.052;2023-04-15T15:29:50;3.13;;;2.85;;
14272;SDS011;7220;49.450;11.052;2023-04-15T15:33:50;2.85;;;2.65;;
14272;SDS011;7220;49.450;11.052;2023-04-15T15:37:51;3.55;;;2.50;;
14272;SDS011;7220;49.450;11.052;2023-04-15T15:41:52;3.88;;;3.33;;
14272;SDS011;7220;49.450;11.052;2023-04-15T15:45:52;3.45;;;2.83;;
14272;SDS011;7220;49.450;11.052;2023-04-15T15:49:54;2.28;;;2.08;;
14272;SDS011;7220;49.450;11.052;2023-04-15T15:53:54;2.97;;;2.65;;
14272;SDS011;7220;49.450;11.052;2023-04-15T15:57:55;5.05;;;2.40;;
14272;SDS011;7220;49.450;11.052;2023-04-15T16:01:55;2.92;;;2.72;;
14272;SDS011;7220;49.450;11.052;2023-04-15T16:05:55;4.10;;;3.70;;
14272;SDS011;7220;49.450;11.052;2023-04-15T16:09:56;5.93;;;5.32;;
14272;SDS011;7220;49.450;11.052;2023-04-15T16:13:56;4.40;;;4.00;;
14272;SDS011;7220;49.450;11.052;2023-04-15T16:17:57;3.95;;;3.55;;
14272;SDS011;7220;49.450;11.052;2023-04-15T16:21:57;3.88;;;3.58;;
14272;SDS011;7220;49.450;11.052;2023-04-15T16:25:59;3.40;;;3.10;;
14272;SDS011;7220;49.450;11.052;2023-04-15T16:29:59;4.47;;;4.07;;
14272;SDS011;7220;49.450;11.052;2023-04-15T16:34:01;4.00;;;3.40;;
14272;SDS011;7220;49.450;11.052;2023-04-15T16:38:01;4.15;;;3.78;;
14272;SDS011;7220;49.450;11.052;2023-04-15T16:42:02;4.60;;;3.45;;
14272;SDS011;7220;49.450;11.052;2023-04-15T16:46:02;4.50;;;4.10;;
14272;SDS011;7220;49.450;11.052;2023-04-15T16:50:02;4.88;;;3.88;;
14272;SDS011;7220;49.450;11.052;2023-04-15T16:54:03;4.10;;;3.80;;
14272;SDS011;7220;49.450;11.052;2023-04-15T16:58:03;5.25;;;3.47;;
14272;SDS011;7220;49.450;11.052;2023-04-15T17:02:04;3.75;;;3.42;;
14272;SDS011;7220;49.450;11.052;2023-04-15T17:06:04;4.22;;;3.92;;
14272;SDS011;7220;49.450;11.052;2023-04-15T17:10:05;4.70;;;4.22;;
14272;SDS011;7220;49.450;11.052;2023-04-15T17:14:06;4.43;;;3.67;;
14272;SDS011;7220;49.450;11.052;2023-04-15T17:18:06;4.40;;;4.00;;
14272;SDS011;7220;49.450;11.052;2023-04-15T17:22:08;3.92;;;3.63;;
14272;SDS011;7220;49.450;11.052;2023-04-15T17:26:08;4.43;;;4.03;;
14272;SDS011;7220;49.450;11.052;2023-04-15T17:30:08;4.50;;;3.92;;
14272;SDS011;7220;49.450;11.052;2023-04-15T17:34:09;5.22;;;4.70;;
14272;SDS011;7220;49.450;11.052;2023-04-15T17:38:10;5.85;;;4.72;;
14272;SDS011;7220;49.450;11.052;2023-04-15T17:42:10;6.20;;;4.65;;
14272;SDS011;7220;49.450;11.052;2023-04-15T17:46:11;4.45;;;4.05;;
14272;SDS011;7220;49.450;11.052;2023-04-15T17:50:12;5.93;;;5.22;;
14272;SDS011;7220;49.450;11.052;2023-04-15T17:54:12;4.97;;;4.47;;
14272;SDS011;7220;49.450;11.052;2023-04-15T17:58:12;6.03;;;5.05;;
14272;SDS011;7220;49.450;11.052;2023-04-15T18:02:13;5.40;;;4.25;;
14272;SDS011;7220;49.450;11.052;2023-04-15T18:06:14;4.78;;;4.38;;
14272;SDS011;7220;49.450;11.052;2023-04-15T18:10:15;4.15;;;3.75;;
14272;SDS011;7220;49.450;11.052;2023-04-15T18:14:16;4.13;;;3.72;;
14272;SDS011;7220;49.450;11.052;2023-04-15T18:18:16;4.45;;;4.05;;
14272;SDS011;7220;49.450;11.052;2023-04-15T18:22:16;5.68;;;4.22;;
14272;SDS011;7220;49.450;11.052;2023-04-15T18:26:17;4.50;;;4.10;;
14272;SDS011;7220;49.450;11.052;2023-04-15T18:30:17;5.32;;;4.15;;
14272;SDS011;7220;49.450;11.052;2023-04-15T18:34:18;4.60;;;4.20;;
14272;SDS011;7220;49.450;11.052;2023-04-15T18:38:18;5.05;;;4.05;;
14272;SDS011;7220;49.450;11.052;2023-04-15T18:42:18;4.78;;;4.30;;
14272;SDS011;7220;49.450;11.052;2023-04-15T18:46:19;4.18;;;3.80;;
14272;SDS011;7220;49.450;11.052;2023-04-15T18:50:19;3.85;;;2.90;;
14272;SDS011;7220;49.450;11.052;2023-04-15T18:54:19;3.30;;;3.00;;
14272;SDS011;7220;49.450;11.052;2023-04-15T18:58:20;3.00;;;2.80;;
14272;SDS011;7220;49.450;11.052;2023-04-15T19:02:21;4.10;;;3.70;;
14272;SDS011;7220;49.450;11.052;2023-04-15T19:06:21;3.22;;;2.90;;
14272;SDS011;7220;49.450;11.052;2023-04-15T19:10:21;3.28;;;3.00;;
14272;SDS011;7220;49.450;11.052;2023-04-15T19:14:22;3.42;;;3.20;;
14272;SDS011;7220;49.450;11.052;2023-04-15T19:18:22;4.47;;;3.67;;
14272;SDS011;7220;49.450;11.052;2023-04-15T19:22:23;3.83;;;3.50;;
14272;SDS011;7220;49.450;11.052;2023-04-15T19:26:23;4.65;;;3.85;;
14272;SDS011;7220;49.450;11.052;2023-04-15T19:30:24;4.40;;;4.00;;
14272;SDS011;7220;49.450;11.052;2023-04-15T19:34:24;3.63;;;3.33;;
14272;SDS011;7220;49.450;11.052;2023-04-15T19:38:25;4.07;;;3.67;;
14272;SDS011;7220;49.450;11.052;2023-04-15T19:42:25;3.63;;;3.33;;
14272;SDS011;7220;49.450;11.052;2023-04-15T19:46:25;3.55;;;3.25;;
14272;SDS011;7220;49.450;11.052;2023-04-15T19:50:26;3.47;;;3.17;;
14272;SDS011;7220;49.450;11.052;2023-04-15T19:54:27;4.07;;;3.72;;
14272;SDS011;7220;49.450;11.052;2023-04-15T19:58:27;4.33;;;3.23;;
14272;SDS011;7220;49.450;11.052;2023-04-15T20:02:27;3.50;;;3.20;;
14272;SDS011;7220;49.450;11.052;2023-04-15T20:06:28;4.53;;;3.45;;
14272;SDS011;7220;49.450;11.052;2023-04-15T20:10:29;5.53;;;3.67;;
14272;SDS011;7220;49.450;11.052;2023-04-15T20:14:30;4.22;;;3.83;;
14272;SDS011;7220;49.450;11.052;2023-04-15T20:18:30;4.13;;;3.72;;
14272;SDS011;7220;49.450;11.052;2023-04-15T20:22:31;3.85;;;3.55;;
14272;SDS011;7220;49.450;11.052;2023-04-15T20:26:32;4.38;;;3.97;;
14272;SDS011;7220;49.450;11.052;2023-04-15T20:30:32;3.88;;;3.20;;
14272;SDS011;7220;49.450;11.052;2023-04-15T20:34:32;4.82;;;3.70;;
14272;SDS011;7220;49.450;11.052;2023-04-15T20:38:34;3.95;;;3.53;;
14272;SDS011;7220;49.450;11.052;2023-04-15T20:42:34;4.10;;;3.70;;
14272;SDS011;7220;49.450;11.052;2023-04-15T20:46:34;4.13;;;3.65;;
14272;SDS011;7220;49.450;11.052;2023-04-15T20:50:35;3.90;;;3.60;;
14272;SDS011;7220;49.450;11.052;2023-04-15T20:54:37;3.97;;;3.58;;
14272;SDS011;7220;49.450;11.052;2023-04-15T20:58:37;4.30;;;3.90;;
14272;SDS011;7220;49.450;11.052;2023-04-15T21:02:38;4.43;;;4.03;;
14272;SDS011;7220;49.450;11.052;2023-04-15T21:06:38;5.18;;;4.35;;
14272;SDS011;7220;49.450;11.052;2023-04-15T21:10:38;5.07;;;4.60;;
14272;SDS011;7220;49.450;11.052;2023-04-15T21:14:39;5.95;;;4.93;;
14272;SDS011;7220;49.450;11.052;2023-04-15T21:18:39;5.68;;;5.18;;
14272;SDS011;7220;49.450;11.052;2023-04-15T21:22:40;6.43;;;5.80;;
14272;SDS011;7220;49.450;11.052;2023-04-15T21:26:40;4.95;;;4.55;;
14272;SDS011;7220;49.450;11.052;2023-04-15T21:30:40;5.97;;;5.43;;
14272;SDS011;7220;49.450;11.052;2023-04-15T21:34:41;6.75;;;6.05;;
14272;SDS011;7220;49.450;11.052;2023-04-15T21:38:41;6.80;;;6.10;;
14272;SDS011;7220;49.450;11.052;2023-04-15T21:42:41;9.00;;;7.53;;
14272;SDS011;7220;49.450;11.052;2023-04-15T21:46:41;8.68;;;6.75;;
14272;SDS011;7220;49.450;11.052;2023-04-15T21:50:42;9.82;;;8.82;;
14272;SDS011;7220;49.450;11.052;2023-04-15T21:54:42;6.87;;;6.23;;
14272;SDS011;7220;49.450;11.052;2023-04-15T21:58:42;7.10;;;6.40;;
14272;SDS011;7220;49.450;11.052;2023-04-15T22:02:43;8.10;;;7.30;;
14272;SDS011;7220;49.450;11.052;2023-04-15T22:06:43;6.53;;;5.93;;
14272;SDS011;7220;49.450;11.052;2023-04-15T22:10:43;8.50;;;7.70;;
14272;SDS011;7220;49.450;11.052;2023-04-15T22:14:44;8.25;;;7.38;;
14272;SDS011;7220;49.450;11.052;2023-04-15T22:18:44;7.70;;;6.87;;
